createdAt,value
2018-11-14T00:04:32.426Z,8.48
2018-11-14T00:07:02.117Z,8.51
2018-11-14T00:09:31.871Z,8.50
2018-11-14T00:12:01.367Z,8.44
2018-11-14T00:14:30.822Z,8.46
2018-11-14T00:17:00.572Z,8.32
2018-11-14T00:19:30.012Z,8.38
2018-11-14T00:21:59.662Z,8.28
2018-11-14T00:24:29.787Z,8.32
2018-11-14T00:26:59.152Z,8.41
2018-11-14T00:29:28.589Z,8.33
2018-11-14T00:31:57.912Z,8.30
2018-11-14T00:34:27.331Z,8.29
2018-11-14T00:36:56.981Z,8.26
2018-11-14T00:39:26.140Z,8.27
2018-11-14T00:41:56.664Z,8.15
2018-11-14T00:44:25.938Z,8.04
2018-11-14T00:46:55.234Z,7.96
2018-11-14T00:49:24.560Z,7.89
2018-11-14T00:51:53.966Z,7.84
2018-11-14T00:54:23.410Z,7.76
2018-11-14T00:56:52.753Z,7.79
2018-11-14T00:59:22.289Z,7.70
2018-11-14T01:01:51.700Z,7.70
2018-11-14T01:04:21.304Z,7.67
2018-11-14T01:06:50.674Z,7.72
2018-11-14T01:09:20.459Z,7.75
2018-11-14T01:11:49.457Z,7.73
2018-11-14T01:14:18.736Z,7.69
2018-11-14T01:16:48.177Z,7.61
2018-11-14T01:19:17.361Z,7.65
2018-11-14T01:21:47.761Z,7.67
2018-11-14T01:24:16.902Z,7.57
2018-11-14T01:26:46.465Z,7.44
2018-11-14T01:29:15.828Z,7.37
2018-11-14T01:31:45.141Z,7.37
2018-11-14T01:34:15.181Z,7.33
2018-11-14T01:36:44.545Z,7.23
2018-11-14T01:39:13.778Z,7.19
2018-11-14T01:41:43.154Z,7.10
2018-11-14T01:44:12.590Z,7.07
2018-11-14T01:46:41.866Z,7.10
2018-11-14T01:49:11.348Z,7.13
2018-11-14T01:51:40.773Z,7.17
2018-11-14T01:54:10.333Z,7.08
2018-11-14T01:56:39.751Z,7.03
2018-11-14T01:59:09.265Z,7.05
2018-11-14T02:01:38.548Z,7.04
2018-11-14T02:04:07.984Z,7.00
2018-11-14T02:06:37.268Z,7.09
2018-11-14T02:09:08.274Z,7.07
2018-11-14T02:11:37.945Z,7.08
2018-11-14T02:14:07.654Z,7.00
2018-11-14T02:16:36.918Z,6.83
2018-11-14T02:19:06.462Z,6.71
2018-11-14T02:21:35.772Z,6.66
2018-11-14T02:24:05.037Z,6.71
2018-11-14T02:26:34.371Z,6.59
2018-11-14T02:29:03.606Z,6.63
2018-11-14T02:31:33.008Z,6.61
2018-11-14T02:34:02.285Z,6.67
2018-11-14T02:36:31.584Z,6.63
2018-11-14T02:39:00.883Z,6.63
2018-11-14T02:41:30.162Z,6.58
2018-11-14T02:43:59.513Z,6.44
2018-11-14T02:46:28.884Z,6.41
2018-11-14T02:48:58.833Z,6.39
2018-11-14T02:51:29.401Z,6.49
2018-11-14T02:53:58.657Z,6.54
2018-11-14T02:56:28.172Z,6.55
2018-11-14T02:58:57.497Z,6.57
2018-11-14T03:01:27.776Z,6.55
2018-11-14T03:03:57.330Z,6.52
2018-11-14T03:06:26.612Z,6.54
2018-11-14T03:08:55.975Z,6.51
2018-11-14T03:11:25.195Z,6.55
2018-11-14T03:13:55.272Z,6.53
2018-11-14T03:16:24.611Z,6.43
2018-11-14T03:18:53.944Z,6.35
2018-11-14T03:21:23.393Z,6.36
2018-11-14T03:23:52.797Z,6.41
2018-11-14T03:26:22.830Z,6.42
2018-11-14T03:28:52.064Z,6.39
2018-11-14T03:31:21.414Z,6.31
2018-11-14T03:33:50.800Z,6.41
2018-11-14T03:36:21.261Z,6.42
2018-11-14T03:38:50.732Z,6.39
2018-11-14T03:41:19.988Z,6.28
2018-11-14T03:43:49.462Z,6.25
2018-11-14T03:46:18.935Z,6.09
2018-11-14T03:48:48.402Z,6.01
2018-11-14T03:51:17.701Z,5.92
2018-11-14T03:53:47.135Z,5.84
2018-11-14T03:56:16.680Z,5.79
2018-11-14T03:58:45.999Z,5.83
2018-11-14T04:01:15.363Z,5.83
2018-11-14T04:03:44.905Z,5.89
2018-11-14T04:06:14.228Z,5.98
2018-11-14T04:08:43.693Z,5.98
2018-11-14T04:11:13.107Z,6.01
2018-11-14T04:13:42.566Z,5.95
2018-11-14T04:16:12.026Z,5.87
2018-11-14T04:18:41.337Z,5.64
2018-11-14T04:21:10.617Z,5.62
2018-11-14T04:23:43.441Z,5.58
2018-11-14T04:26:12.955Z,5.58
2018-11-14T04:28:42.471Z,5.54
2018-11-14T04:31:11.995Z,5.53
2018-11-14T04:33:41.342Z,5.46
2018-11-14T04:36:10.814Z,5.48
2018-11-14T04:38:40.319Z,5.38
2018-11-14T04:41:09.733Z,5.18
2018-11-14T04:43:39.260Z,5.38
2018-11-14T04:46:08.801Z,5.30
2018-11-14T04:48:38.241Z,5.28
2018-11-14T04:51:07.859Z,5.26
2018-11-14T04:53:37.347Z,5.18
2018-11-14T04:56:06.902Z,5.04
2018-11-14T04:58:36.479Z,4.94
2018-11-14T05:01:05.958Z,4.75
2018-11-14T05:03:35.474Z,4.86
2018-11-14T05:06:04.775Z,4.91
2018-11-14T05:08:34.005Z,4.91
2018-11-14T05:11:05.524Z,4.91
2018-11-14T05:13:35.334Z,4.98
2018-11-14T05:16:04.751Z,4.82
2018-11-14T05:18:34.039Z,4.78
2018-11-14T05:21:03.316Z,4.76
2018-11-14T05:23:39.075Z,4.70
2018-11-14T05:26:08.573Z,4.76
2018-11-14T05:28:38.364Z,4.73
2018-11-14T05:31:07.740Z,4.69
2018-11-14T05:33:37.142Z,4.59
2018-11-14T05:36:06.565Z,4.28
2018-11-14T05:38:36.017Z,4.40
2018-11-14T05:41:05.468Z,4.49
2018-11-14T05:43:35.387Z,4.56
2018-11-14T05:46:04.720Z,4.40
2018-11-14T05:48:34.192Z,4.16
2018-11-14T05:51:03.684Z,4.09
2018-11-14T05:53:33.012Z,4.01
2018-11-14T05:56:03.365Z,4.19
2018-11-14T05:58:33.447Z,4.25
2018-11-14T06:01:02.924Z,4.32
2018-11-14T06:03:32.230Z,4.37
2018-11-14T06:06:01.456Z,4.37
2018-11-14T06:08:30.738Z,4.37
2018-11-14T06:10:59.976Z,4.34
2018-11-14T06:13:29.337Z,4.28
2018-11-14T06:15:58.633Z,4.17
2018-11-14T06:18:28.160Z,4.12
2018-11-14T06:20:58.025Z,4.28
2018-11-14T06:23:27.511Z,4.31
2018-11-14T06:25:56.893Z,4.37
2018-11-14T06:28:26.419Z,4.36
2018-11-14T06:30:55.941Z,4.33
2018-11-14T06:33:25.365Z,4.54
2018-11-14T06:35:54.642Z,4.76
2018-11-14T06:38:23.920Z,6.07
2018-11-14T06:40:53.371Z,6.72
2018-11-14T06:43:22.874Z,7.42
2018-11-14T06:45:53.194Z,7.30
2018-11-14T06:48:23.092Z,6.74
2018-11-14T06:50:52.522Z,6.50
2018-11-14T06:53:21.879Z,6.51
2018-11-14T06:55:51.334Z,6.45
2018-11-14T06:58:21.229Z,6.41
2018-11-14T07:00:50.744Z,6.63
2018-11-14T07:03:20.187Z,6.36
2018-11-14T07:05:49.572Z,6.53
2018-11-14T07:08:18.837Z,8.91
2018-11-14T07:10:48.338Z,10.50
2018-11-14T07:13:18.675Z,10.34
2018-11-14T07:15:48.279Z,10.06
2018-11-14T07:18:17.679Z,10.07
2018-11-14T07:20:47.206Z,9.91
2018-11-14T07:23:16.675Z,9.59
2018-11-14T07:25:46.160Z,9.82
2018-11-14T07:28:16.262Z,9.88
2018-11-14T07:30:45.890Z,9.84
2018-11-14T07:33:16.306Z,10.63
2018-11-14T07:35:46.808Z,11.11
2018-11-14T07:38:35.258Z,11.00
2018-11-14T07:41:05.623Z,10.91
2018-11-14T07:43:37.067Z,11.01
2018-11-14T07:46:07.821Z,11.18
2018-11-14T07:48:38.017Z,11.16
2018-11-14T07:51:08.738Z,11.56
2018-11-14T07:53:38.133Z,11.86
2018-11-14T07:56:08.727Z,12.38
2018-11-14T07:58:38.826Z,12.02
2018-11-14T08:01:08.955Z,11.27
2018-11-14T08:03:38.325Z,10.94
2018-11-14T08:06:09.090Z,11.63
2018-11-14T08:08:38.590Z,11.08
2018-11-14T08:11:08.596Z,10.89
2018-11-14T08:13:39.797Z,11.20
2018-11-14T08:16:09.847Z,10.92
2018-11-14T08:18:42.844Z,11.16
2018-11-14T08:21:14.162Z,11.22
2018-11-14T08:23:44.599Z,11.56
2018-11-14T08:26:14.197Z,11.99
2018-11-14T08:28:43.580Z,12.08
2018-11-14T08:31:13.584Z,12.17
2018-11-14T08:33:42.985Z,11.71
2018-11-14T08:36:12.416Z,11.68
2018-11-14T08:38:42.045Z,12.38
2018-11-14T08:41:11.586Z,12.58
2018-11-14T08:43:41.976Z,13.13
2018-11-14T08:46:11.364Z,12.41
2018-11-14T08:48:40.926Z,12.65
2018-11-14T08:51:10.911Z,13.20
2018-11-14T08:53:40.453Z,13.16
2018-11-14T08:56:09.947Z,13.17
2018-11-14T08:58:39.333Z,13.78
2018-11-14T09:01:09.928Z,13.63
2018-11-14T09:03:39.464Z,13.44
2018-11-14T09:06:08.853Z,13.84
2018-11-14T09:08:38.904Z,13.13
2018-11-14T09:11:08.677Z,13.27
2018-11-14T09:13:38.049Z,12.78
2018-11-14T09:16:07.612Z,12.65
2018-11-14T09:18:37.325Z,13.25
2018-11-14T09:21:07.009Z,13.55
2018-11-14T09:23:36.525Z,13.38
2018-11-14T09:26:06.215Z,14.59
2018-11-14T09:28:35.466Z,14.38
2018-11-14T09:31:04.947Z,14.40
2018-11-14T09:33:34.623Z,13.71
2018-11-14T09:36:04.105Z,13.42
2018-11-14T09:38:33.616Z,13.95
2018-11-14T09:41:03.196Z,13.85
2018-11-14T09:43:32.709Z,13.99
2018-11-14T09:46:02.057Z,13.55
2018-11-14T09:48:31.566Z,14.24
2018-11-14T09:51:01.426Z,14.52
2018-11-14T09:53:31.145Z,14.62
2018-11-14T09:56:00.958Z,15.09
2018-11-14T09:58:30.392Z,13.47
2018-11-14T10:01:00.223Z,14.65
2018-11-14T10:03:29.554Z,15.46
2018-11-14T10:05:59.478Z,15.21
2018-11-14T10:08:28.908Z,14.84
2018-11-14T10:10:58.192Z,14.61
2018-11-14T10:13:27.743Z,14.34
2018-11-14T10:15:56.986Z,15.33
2018-11-14T10:18:26.466Z,14.46
2018-11-14T10:20:55.844Z,14.52
2018-11-14T10:23:25.123Z,14.31
2018-11-14T10:25:55.384Z,15.16
2018-11-14T10:28:25.269Z,15.28
2018-11-14T10:30:54.619Z,16.39
2018-11-14T10:33:24.223Z,15.41
2018-11-14T10:35:53.603Z,14.65
2018-11-14T10:38:23.192Z,15.52
2018-11-14T10:40:52.925Z,14.99
2018-11-14T10:43:22.285Z,15.30
2018-11-14T10:45:51.790Z,15.20
2018-11-14T10:48:21.204Z,15.87
2018-11-14T10:50:50.726Z,15.70
2018-11-14T10:53:20.159Z,15.49
2018-11-14T10:55:49.506Z,15.88
2018-11-14T10:58:18.887Z,15.93
2018-11-14T11:00:48.139Z,15.67
2018-11-14T11:03:23.403Z,16.32
2018-11-14T11:05:57.724Z,16.14
2018-11-14T11:08:31.359Z,16.01
2018-11-14T11:11:05.793Z,15.49
2018-11-14T11:13:41.256Z,14.94
2018-11-14T11:16:15.824Z,15.42
2018-11-14T11:18:45.833Z,15.13
2018-11-14T11:21:15.173Z,16.25
2018-11-14T11:23:44.733Z,15.20
2018-11-14T11:26:14.242Z,15.86
2018-11-14T11:28:43.474Z,15.51
2018-11-14T11:31:12.900Z,15.46
2018-11-14T11:33:43.058Z,15.23
2018-11-14T11:36:12.368Z,15.42
2018-11-14T11:38:41.908Z,16.15
2018-11-14T11:41:11.344Z,15.50
2018-11-14T11:43:40.777Z,15.47
2018-11-14T11:46:10.239Z,15.55
2018-11-14T11:48:39.884Z,16.12
2018-11-14T11:51:09.230Z,15.97
2018-11-14T11:53:39.081Z,16.24
2018-11-14T11:56:08.493Z,16.70
2018-11-14T11:58:38.012Z,15.88
2018-11-14T12:01:08.294Z,16.07
2018-11-14T12:03:37.624Z,16.81
2018-11-14T12:06:08.549Z,15.98
2018-11-14T12:08:37.942Z,15.94
2018-11-14T12:11:07.574Z,16.45
2018-11-14T12:13:37.087Z,16.82
2018-11-14T12:16:06.510Z,15.99
2018-11-14T12:18:36.067Z,16.37
2018-11-14T12:21:06.228Z,17.04
2018-11-14T12:23:35.799Z,17.20
2018-11-14T12:26:05.320Z,16.79
2018-11-14T12:28:34.683Z,16.76
2018-11-14T12:31:04.330Z,16.60
2018-11-14T12:33:33.661Z,17.06
2018-11-14T12:36:02.917Z,17.35
2018-11-14T12:38:32.387Z,16.61
2018-11-14T12:41:01.890Z,16.84
2018-11-14T12:43:31.299Z,16.45
2018-11-14T12:46:01.886Z,15.81
2018-11-14T12:48:32.737Z,16.19
2018-11-14T12:51:02.025Z,16.47
2018-11-14T12:53:31.622Z,16.13
2018-11-14T12:56:01.330Z,15.54
2018-11-14T12:58:31.004Z,15.12
2018-11-14T13:01:00.913Z,15.56
2018-11-14T13:03:30.408Z,15.36
2018-11-14T13:05:59.874Z,15.23
2018-11-14T13:08:29.189Z,15.21
2018-11-14T13:10:58.518Z,15.65
2018-11-14T13:13:32.145Z,15.54
2018-11-14T13:16:02.366Z,15.38
2018-11-14T13:18:31.727Z,15.31
2018-11-14T13:21:00.965Z,15.28
2018-11-14T13:23:30.342Z,15.13
2018-11-14T13:25:59.799Z,15.38
2018-11-14T13:28:29.156Z,16.27
2018-11-14T13:30:58.771Z,15.67
2018-11-14T13:33:28.210Z,15.78
2018-11-14T13:35:57.521Z,16.10
2018-11-14T13:38:26.876Z,15.72
2018-11-14T13:40:56.490Z,15.55
2018-11-14T13:43:26.012Z,15.79
2018-11-14T13:45:56.751Z,15.71
2018-11-14T13:48:26.740Z,15.42
2018-11-14T13:50:56.296Z,15.27
2018-11-14T13:53:25.625Z,15.22
2018-11-14T13:55:55.071Z,15.01
2018-11-14T13:58:24.479Z,15.20
2018-11-14T14:00:54.041Z,14.80
2018-11-14T14:03:24.007Z,14.41
2018-11-14T14:05:53.546Z,13.85
2018-11-14T14:08:23.767Z,13.95
2018-11-14T14:10:53.237Z,13.67
2018-11-14T14:13:23.680Z,13.52
2018-11-14T14:15:53.866Z,13.11
2018-11-14T14:18:23.386Z,12.99
2018-11-14T14:20:53.002Z,12.82
2018-11-14T14:23:22.791Z,12.51
2018-11-14T14:25:52.836Z,12.43
2018-11-14T14:28:22.334Z,12.59
2018-11-14T14:30:52.073Z,12.71
2018-11-14T14:33:21.584Z,12.30
2018-11-14T14:35:52.002Z,12.37
2018-11-14T14:38:21.655Z,12.16
2018-11-14T14:40:52.582Z,12.06
2018-11-14T14:43:22.905Z,11.91
2018-11-14T14:45:52.692Z,11.74
2018-11-14T14:48:22.173Z,11.51
2018-11-14T14:50:52.085Z,11.47
2018-11-14T14:53:21.788Z,11.65
2018-11-14T14:55:53.290Z,11.62
2018-11-14T14:58:22.793Z,11.60
2018-11-14T15:00:53.493Z,11.07
2018-11-14T15:03:23.875Z,11.12
2018-11-14T15:05:54.763Z,11.15
2018-11-14T15:08:24.537Z,10.87
2018-11-14T15:10:54.629Z,10.95
2018-11-14T15:13:24.736Z,10.89
2018-11-14T15:15:54.614Z,10.98
2018-11-14T15:18:24.738Z,10.82
2018-11-14T15:20:54.299Z,10.89
2018-11-14T15:23:24.399Z,10.82
2018-11-14T15:25:53.968Z,10.93
2018-11-14T15:28:24.519Z,10.44
2018-11-14T15:30:54.136Z,10.22
2018-11-14T15:33:24.222Z,10.30
2018-11-14T15:35:55.258Z,10.34
2018-11-14T15:38:25.255Z,10.18
2018-11-14T15:40:55.072Z,10.17
2018-11-14T15:43:24.521Z,10.03
2018-11-14T15:45:54.141Z,10.04
2018-11-14T15:48:25.221Z,9.93
2018-11-14T15:50:54.893Z,9.86
2018-11-14T15:53:24.440Z,9.58
2018-11-14T15:55:54.721Z,9.54
2018-11-14T15:58:25.522Z,9.48
2018-11-14T16:00:54.979Z,9.68
2018-11-14T16:03:25.747Z,9.63
2018-11-14T16:05:56.493Z,9.44
2018-11-14T16:08:26.487Z,8.93
2018-11-14T16:10:59.713Z,9.07
2018-11-14T16:13:29.294Z,8.85
2018-11-14T16:15:58.756Z,8.78
2018-11-14T16:18:28.196Z,8.82
2018-11-14T16:20:57.903Z,8.13
2018-11-14T16:23:27.998Z,8.24
2018-11-14T16:25:57.968Z,8.47
2018-11-14T16:28:27.540Z,8.36
2018-11-14T16:30:56.991Z,8.28
2018-11-14T16:33:26.453Z,8.17
2018-11-14T16:35:57.065Z,8.17
2018-11-14T16:38:27.792Z,8.02
2018-11-14T16:40:57.059Z,7.95
2018-11-14T16:43:27.820Z,7.56
2018-11-14T16:45:57.979Z,7.65
2018-11-14T16:48:27.548Z,7.43
2018-11-14T16:50:57.092Z,7.50
2018-11-14T16:53:27.258Z,7.53
2018-11-14T16:55:57.211Z,7.47
2018-11-14T16:58:27.269Z,7.56
2018-11-14T17:00:58.019Z,7.57
2018-11-14T17:03:28.163Z,7.53
2018-11-14T17:05:58.436Z,7.58
2018-11-14T17:08:28.207Z,7.47
2018-11-14T17:10:57.949Z,7.30
2018-11-14T17:13:28.655Z,7.38
2018-11-14T17:15:58.786Z,7.32
2018-11-14T17:18:28.284Z,7.23
2018-11-14T17:20:58.086Z,7.10
2018-11-14T17:23:28.394Z,7.25
2018-11-14T17:25:57.780Z,6.99
2018-11-14T17:28:28.475Z,6.83
2018-11-14T17:30:57.805Z,6.81
2018-11-14T17:33:27.807Z,6.82
2018-11-14T17:35:58.084Z,6.67
2018-11-14T17:38:27.739Z,6.79
2018-11-14T17:40:57.363Z,6.89
2018-11-14T17:43:26.807Z,6.51
2018-11-14T17:45:57.178Z,6.66
2018-11-14T17:48:26.773Z,6.34
2018-11-14T17:50:56.631Z,6.45
2018-11-14T17:53:26.096Z,6.34
2018-11-14T17:55:56.013Z,6.41
2018-11-14T17:58:26.815Z,6.33
2018-11-14T18:00:58.120Z,6.20
2018-11-14T18:03:27.876Z,6.32
2018-11-14T18:05:58.028Z,6.26
2018-11-14T18:08:27.534Z,6.24
2018-11-14T18:10:57.122Z,6.07
2018-11-14T18:13:27.845Z,6.01
2018-11-14T18:15:57.343Z,6.11
2018-11-14T18:18:26.844Z,6.00
2018-11-14T18:20:56.986Z,5.98
2018-11-14T18:23:26.541Z,5.95
2018-11-14T18:25:56.739Z,5.82
2018-11-14T18:28:26.301Z,5.76
2018-11-14T18:30:55.813Z,5.80
2018-11-14T18:33:26.212Z,5.90
2018-11-14T18:35:55.776Z,5.82
2018-11-14T18:38:25.273Z,5.80
2018-11-14T18:40:55.334Z,5.73
2018-11-14T18:43:25.089Z,5.57
2018-11-14T18:45:55.665Z,5.61
2018-11-14T18:48:25.961Z,5.57
2018-11-14T18:50:55.743Z,5.61
2018-11-14T18:53:25.434Z,5.59
2018-11-14T18:55:55.664Z,5.30
2018-11-14T18:58:25.312Z,5.25
2018-11-14T19:00:57.062Z,5.38
2018-11-14T19:03:28.672Z,5.45
2018-11-14T19:05:58.446Z,5.42
2018-11-14T19:08:28.214Z,5.23
2018-11-14T19:10:57.691Z,5.16
2018-11-14T19:13:27.313Z,5.09
2018-11-14T19:15:56.811Z,5.15
2018-11-14T19:18:26.739Z,5.14
2018-11-14T19:20:59.492Z,5.05
2018-11-14T19:23:28.978Z,5.04
2018-11-14T19:25:59.678Z,4.99
2018-11-14T19:28:29.139Z,5.02
2018-11-14T19:30:58.534Z,4.94
2018-11-14T19:33:28.132Z,4.74
2018-11-14T19:35:57.696Z,4.81
2018-11-14T19:38:28.211Z,4.72
2018-11-14T19:40:57.848Z,4.56
2018-11-14T19:43:27.272Z,4.28
2018-11-14T19:45:58.727Z,4.29
2018-11-14T19:48:30.036Z,4.56
2018-11-14T19:50:59.647Z,4.58
2018-11-14T19:53:29.768Z,4.59
2018-11-14T19:55:59.319Z,4.50
2018-11-14T19:58:28.880Z,4.49
2018-11-14T20:00:59.653Z,4.55
2018-11-14T20:03:29.722Z,4.11
2018-11-14T20:05:59.379Z,4.18
2018-11-14T20:08:30.806Z,4.34
2018-11-14T20:11:01.054Z,4.39
2018-11-14T20:13:31.558Z,4.43
2018-11-14T20:16:00.966Z,4.43
2018-11-14T20:18:30.382Z,4.46
2018-11-14T20:20:59.907Z,4.42
2018-11-14T20:23:29.412Z,4.31
2018-11-14T20:25:58.874Z,4.36
2018-11-14T20:28:29.481Z,4.43
2018-11-14T20:30:59.038Z,4.35
2018-11-14T20:33:28.494Z,4.15
2018-11-14T20:35:59.686Z,4.11
2018-11-14T20:38:29.226Z,4.20
2018-11-14T20:40:58.816Z,4.12
2018-11-14T20:43:28.884Z,4.16
2018-11-14T20:45:59.946Z,4.14
2018-11-14T20:48:31.916Z,4.00
2018-11-14T20:51:01.496Z,3.94
2018-11-14T20:53:31.091Z,3.96
2018-11-14T20:56:00.590Z,3.83
2018-11-14T20:58:30.962Z,3.75
2018-11-14T21:01:02.591Z,3.87
2018-11-14T21:03:32.084Z,3.85
2018-11-14T21:06:01.798Z,3.74
2018-11-14T21:08:31.315Z,3.83
2018-11-14T21:11:01.312Z,3.75
2018-11-14T21:13:32.693Z,3.82
2018-11-14T21:16:02.078Z,3.79
2018-11-14T21:18:31.717Z,3.57
2018-11-14T21:21:01.336Z,3.54
2018-11-14T21:23:32.619Z,3.68
2018-11-14T21:26:03.358Z,3.63
2018-11-14T21:28:33.586Z,3.66
2018-11-14T21:31:03.319Z,3.43
2018-11-14T21:33:32.923Z,3.43
2018-11-14T21:36:02.395Z,3.47
2018-11-14T21:38:32.017Z,3.46
2018-11-14T21:41:02.260Z,3.46
2018-11-14T21:43:31.961Z,3.39
2018-11-14T21:46:01.505Z,3.19
2018-11-14T21:48:31.313Z,3.28
2018-11-14T21:51:01.863Z,3.37
2018-11-14T21:53:31.290Z,3.34
2018-11-14T21:56:00.994Z,3.32
2018-11-14T21:58:30.312Z,3.36
2018-11-14T22:00:59.701Z,3.29
2018-11-14T22:03:29.404Z,3.29
2018-11-14T22:05:58.878Z,3.37
2018-11-14T22:08:28.715Z,3.36
2018-11-14T22:10:58.505Z,3.19
2018-11-14T22:13:28.082Z,3.15
2018-11-14T22:15:57.601Z,3.08
2018-11-14T22:18:28.302Z,3.08
2018-11-14T22:20:58.977Z,3.11
2018-11-14T22:23:28.640Z,3.02
2018-11-14T22:25:57.919Z,3.01
2018-11-14T22:28:27.488Z,2.94
2018-11-14T22:30:57.894Z,3.03
2018-11-14T22:33:27.514Z,3.03
2018-11-14T22:35:57.199Z,2.91
2018-11-14T22:38:27.602Z,2.78
2018-11-14T22:40:56.855Z,2.95
2018-11-14T22:43:26.282Z,2.89
2018-11-14T22:45:55.639Z,2.88
2018-11-14T22:48:25.115Z,2.80
2018-11-14T22:50:55.980Z,2.75
2018-11-14T22:53:25.880Z,2.74
2018-11-14T22:55:55.564Z,2.86
2018-11-14T22:58:25.882Z,2.80
2018-11-14T23:00:55.691Z,2.74
2018-11-14T23:03:25.378Z,2.36
2018-11-14T23:05:54.836Z,2.29
2018-11-14T23:08:24.425Z,2.31
2018-11-14T23:10:54.051Z,2.30
2018-11-14T23:13:24.599Z,2.43
2018-11-14T23:15:54.313Z,2.53
2018-11-14T23:18:23.949Z,2.55
2018-11-14T23:20:54.928Z,2.51
2018-11-14T23:23:24.819Z,2.54
2018-11-14T23:25:54.575Z,2.46
2018-11-14T23:28:24.100Z,2.51
2018-11-14T23:30:53.527Z,2.51
2018-11-14T23:33:22.929Z,2.44
2018-11-14T23:35:52.411Z,2.42
2018-11-14T23:38:21.837Z,2.44
2018-11-14T23:40:51.650Z,2.53
2018-11-14T23:43:20.899Z,2.33
2018-11-14T23:45:50.209Z,2.32
2018-11-14T23:48:20.557Z,2.35
2018-11-14T23:50:49.899Z,2.37
2018-11-14T23:53:20.330Z,2.36
2018-11-14T23:55:49.702Z,2.28
2018-11-14T23:58:19.764Z,2.20
